sensor_id;sensor_type;location;lat;lon;timestamp;P1;durP1;ratioP1;P2;durP2;ratioP2
16669;SDS011;8448;52.034;5.158;2023-02-03T00:02:05;9.73;;;3.10;;
16669;SDS011;8448;52.034;5.158;2023-02-03T00:04:33;14.00;;;3.70;;
16669;SDS011;8448;52.034;5.158;2023-02-03T00:07:00;11.67;;;3.03;;
16669;SDS011;8448;52.034;5.158;2023-02-03T00:09:27;14.87;;;3.93;;
16669;SDS011;8448;52.034;5.158;2023-02-03T00:11:55;15.60;;;2.83;;
16669;SDS011;8448;52.034;5.158;2023-02-03T00:14:23;11.00;;;2.80;;
16669;SDS011;8448;52.034;5.158;2023-02-03T00:16:50;11.30;;;2.80;;
16669;SDS011;8448;52.034;5.158;2023-02-03T00:19:19;13.57;;;3.27;;
16669;SDS011;8448;52.034;5.158;2023-02-03T00:21:46;11.77;;;3.50;;
16669;SDS011;8448;52.034;5.158;2023-02-03T00:24:14;17.23;;;4.10;;
16669;SDS011;8448;52.034;5.158;2023-02-03T00:26:43;12.70;;;3.60;;
16669;SDS011;8448;52.034;5.158;2023-02-03T00:29:10;16.23;;;3.67;;
16669;SDS011;8448;52.034;5.158;2023-02-03T00:31:38;17.30;;;3.53;;
16669;SDS011;8448;52.034;5.158;2023-02-03T00:34:06;12.50;;;3.30;;
16669;SDS011;8448;52.034;5.158;2023-02-03T00:36:34;14.37;;;3.77;;
16669;SDS011;8448;52.034;5.158;2023-02-03T00:39:02;15.07;;;3.77;;
16669;SDS011;8448;52.034;5.158;2023-02-03T00:41:31;16.90;;;3.60;;
16669;SDS011;8448;52.034;5.158;2023-02-03T00:43:58;15.00;;;3.67;;
16669;SDS011;8448;52.034;5.158;2023-02-03T00:46:27;16.23;;;4.10;;
16669;SDS011;8448;52.034;5.158;2023-02-03T00:48:55;11.50;;;3.50;;
16669;SDS011;8448;52.034;5.158;2023-02-03T00:51:22;15.13;;;3.97;;
16669;SDS011;8448;52.034;5.158;2023-02-03T00:53:51;13.00;;;3.60;;
16669;SDS011;8448;52.034;5.158;2023-02-03T00:56:18;12.20;;;3.47;;
16669;SDS011;8448;52.034;5.158;2023-02-03T00:58:45;13.33;;;3.37;;
16669;SDS011;8448;52.034;5.158;2023-02-03T01:01:13;13.43;;;3.73;;
16669;SDS011;8448;52.034;5.158;2023-02-03T01:03:41;17.57;;;3.70;;
16669;SDS011;8448;52.034;5.158;2023-02-03T01:06:09;16.00;;;3.60;;
16669;SDS011;8448;52.034;5.158;2023-02-03T01:08:37;14.43;;;3.93;;
16669;SDS011;8448;52.034;5.158;2023-02-03T01:11:06;9.83;;;3.60;;
16669;SDS011;8448;52.034;5.158;2023-02-03T01:13:34;14.13;;;3.60;;
16669;SDS011;8448;52.034;5.158;2023-02-03T01:16:06;12.93;;;3.77;;
16669;SDS011;8448;52.034;5.158;2023-02-03T01:18:34;13.60;;;3.27;;
16669;SDS011;8448;52.034;5.158;2023-02-03T01:21:05;14.37;;;3.50;;
16669;SDS011;8448;52.034;5.158;2023-02-03T01:23:34;9.93;;;2.53;;
16669;SDS011;8448;52.034;5.158;2023-02-03T01:26:02;11.90;;;3.20;;
16669;SDS011;8448;52.034;5.158;2023-02-03T01:28:32;13.07;;;3.03;;
16669;SDS011;8448;52.034;5.158;2023-02-03T01:31:07;15.87;;;3.37;;
16669;SDS011;8448;52.034;5.158;2023-02-03T01:33:37;11.93;;;3.23;;
16669;SDS011;8448;52.034;5.158;2023-02-03T01:36:05;11.53;;;2.90;;
16669;SDS011;8448;52.034;5.158;2023-02-03T01:38:33;8.83;;;2.50;;
16669;SDS011;8448;52.034;5.158;2023-02-03T01:41:01;11.70;;;2.80;;
16669;SDS011;8448;52.034;5.158;2023-02-03T01:43:29;10.43;;;2.87;;
16669;SDS011;8448;52.034;5.158;2023-02-03T01:46:00;9.63;;;2.53;;
16669;SDS011;8448;52.034;5.158;2023-02-03T01:48:30;10.37;;;2.80;;
16669;SDS011;8448;52.034;5.158;2023-02-03T01:50:59;12.37;;;3.03;;
16669;SDS011;8448;52.034;5.158;2023-02-03T01:53:28;7.90;;;2.40;;
16669;SDS011;8448;52.034;5.158;2023-02-03T01:55:58;11.23;;;2.67;;
16669;SDS011;8448;52.034;5.158;2023-02-03T01:58:29;11.90;;;2.67;;
16669;SDS011;8448;52.034;5.158;2023-02-03T02:01:00;8.13;;;2.27;;
16669;SDS011;8448;52.034;5.158;2023-02-03T02:03:29;7.53;;;2.37;;
16669;SDS011;8448;52.034;5.158;2023-02-03T02:05:59;8.50;;;2.23;;
16669;SDS011;8448;52.034;5.158;2023-02-03T02:08:28;11.07;;;2.77;;
16669;SDS011;8448;52.034;5.158;2023-02-03T02:10:56;13.13;;;2.87;;
16669;SDS011;8448;52.034;5.158;2023-02-03T02:13:24;9.13;;;2.30;;
16669;SDS011;8448;52.034;5.158;2023-02-03T02:15:54;12.23;;;2.70;;
16669;SDS011;8448;52.034;5.158;2023-02-03T02:18:27;9.57;;;2.43;;
16669;SDS011;8448;52.034;5.158;2023-02-03T02:21:21;7.13;;;2.20;;
16669;SDS011;8448;52.034;5.158;2023-02-03T02:27:17;10.93;;;2.40;;
16669;SDS011;8448;52.034;5.158;2023-02-03T02:33:13;7.37;;;1.90;;
16669;SDS011;8448;52.034;5.158;2023-02-03T02:35:47;8.07;;;2.27;;
16669;SDS011;8448;52.034;5.158;2023-02-03T02:38:23;9.00;;;1.93;;
16669;SDS011;8448;52.034;5.158;2023-02-03T02:40:58;10.50;;;2.33;;
16669;SDS011;8448;52.034;5.158;2023-02-03T02:43:31;11.47;;;2.23;;
16669;SDS011;8448;52.034;5.158;2023-02-03T02:46:05;7.77;;;1.90;;
16669;SDS011;8448;52.034;5.158;2023-02-03T02:48:38;8.87;;;2.33;;
16669;SDS011;8448;52.034;5.158;2023-02-03T02:51:08;11.57;;;2.37;;
16669;SDS011;8448;52.034;5.158;2023-02-03T02:53:38;6.77;;;1.90;;
16669;SDS011;8448;52.034;5.158;2023-02-03T02:56:08;5.47;;;1.97;;
16669;SDS011;8448;52.034;5.158;2023-02-03T02:58:37;8.53;;;2.00;;
16669;SDS011;8448;52.034;5.158;2023-02-03T03:01:07;7.30;;;2.20;;
16669;SDS011;8448;52.034;5.158;2023-02-03T03:03:38;9.00;;;2.13;;
16669;SDS011;8448;52.034;5.158;2023-02-03T03:06:09;9.00;;;2.43;;
16669;SDS011;8448;52.034;5.158;2023-02-03T03:08:41;7.53;;;1.73;;
16669;SDS011;8448;52.034;5.158;2023-02-03T03:11:10;9.57;;;2.50;;
16669;SDS011;8448;52.034;5.158;2023-02-03T03:13:38;9.33;;;2.37;;
16669;SDS011;8448;52.034;5.158;2023-02-03T03:16:09;9.47;;;2.40;;
16669;SDS011;8448;52.034;5.158;2023-02-03T03:18:40;8.10;;;2.27;;
16669;SDS011;8448;52.034;5.158;2023-02-03T03:21:10;6.03;;;2.07;;
16669;SDS011;8448;52.034;5.158;2023-02-03T03:23:41;8.33;;;1.93;;
16669;SDS011;8448;52.034;5.158;2023-02-03T03:26:12;6.80;;;1.83;;
16669;SDS011;8448;52.034;5.158;2023-02-03T03:28:45;6.43;;;2.57;;
16669;SDS011;8448;52.034;5.158;2023-02-03T03:31:14;5.60;;;2.00;;
16669;SDS011;8448;52.034;5.158;2023-02-03T03:33:43;10.60;;;2.07;;
16669;SDS011;8448;52.034;5.158;2023-02-03T03:36:14;9.93;;;2.50;;
16669;SDS011;8448;52.034;5.158;2023-02-03T03:38:49;6.87;;;2.00;;
16669;SDS011;8448;52.034;5.158;2023-02-03T03:41:23;5.37;;;1.90;;
16669;SDS011;8448;52.034;5.158;2023-02-03T03:43:54;6.87;;;2.10;;
16669;SDS011;8448;52.034;5.158;2023-02-03T03:46:24;10.13;;;2.00;;
16669;SDS011;8448;52.034;5.158;2023-02-03T03:48:55;8.20;;;1.97;;
16669;SDS011;8448;52.034;5.158;2023-02-03T03:51:24;7.33;;;1.80;;
16669;SDS011;8448;52.034;5.158;2023-02-03T03:53:56;6.70;;;1.93;;
16669;SDS011;8448;52.034;5.158;2023-02-03T03:56:26;9.37;;;1.80;;
16669;SDS011;8448;52.034;5.158;2023-02-03T03:58:55;9.33;;;1.93;;
16669;SDS011;8448;52.034;5.158;2023-02-03T04:01:25;7.53;;;2.20;;
16669;SDS011;8448;52.034;5.158;2023-02-03T04:03:55;10.63;;;2.13;;
16669;SDS011;8448;52.034;5.158;2023-02-03T04:06:24;10.17;;;2.20;;
16669;SDS011;8448;52.034;5.158;2023-02-03T04:08:52;7.90;;;1.83;;
16669;SDS011;8448;52.034;5.158;2023-02-03T04:11:20;7.63;;;1.90;;
16669;SDS011;8448;52.034;5.158;2023-02-03T04:14:05;8.33;;;1.83;;
16669;SDS011;8448;52.034;5.158;2023-02-03T04:16:32;10.43;;;1.83;;
16669;SDS011;8448;52.034;5.158;2023-02-03T04:19:01;8.43;;;1.63;;
16669;SDS011;8448;52.034;5.158;2023-02-03T04:21:28;9.33;;;2.13;;
16669;SDS011;8448;52.034;5.158;2023-02-03T04:23:56;8.97;;;1.97;;
16669;SDS011;8448;52.034;5.158;2023-02-03T04:26:23;7.53;;;2.13;;
16669;SDS011;8448;52.034;5.158;2023-02-03T04:28:50;5.60;;;1.67;;
16669;SDS011;8448;52.034;5.158;2023-02-03T04:31:18;8.73;;;2.20;;
16669;SDS011;8448;52.034;5.158;2023-02-03T04:33:45;6.53;;;1.90;;
16669;SDS011;8448;52.034;5.158;2023-02-03T04:36:14;8.87;;;1.90;;
16669;SDS011;8448;52.034;5.158;2023-02-03T04:38:41;8.73;;;1.93;;
16669;SDS011;8448;52.034;5.158;2023-02-03T04:41:09;11.20;;;2.17;;
16669;SDS011;8448;52.034;5.158;2023-02-03T04:43:36;8.60;;;1.87;;
16669;SDS011;8448;52.034;5.158;2023-02-03T04:46:03;8.53;;;2.03;;
16669;SDS011;8448;52.034;5.158;2023-02-03T04:48:31;9.63;;;2.23;;
16669;SDS011;8448;52.034;5.158;2023-02-03T04:50:59;7.97;;;2.13;;
16669;SDS011;8448;52.034;5.158;2023-02-03T04:53:29;11.50;;;2.47;;
16669;SDS011;8448;52.034;5.158;2023-02-03T04:55:57;8.03;;;2.20;;
16669;SDS011;8448;52.034;5.158;2023-02-03T04:58:24;10.33;;;1.93;;
16669;SDS011;8448;52.034;5.158;2023-02-03T05:00:52;7.40;;;1.90;;
16669;SDS011;8448;52.034;5.158;2023-02-03T05:03:19;7.73;;;1.97;;
16669;SDS011;8448;52.034;5.158;2023-02-03T05:05:48;10.10;;;2.23;;
16669;SDS011;8448;52.034;5.158;2023-02-03T05:08:15;6.80;;;1.90;;
16669;SDS011;8448;52.034;5.158;2023-02-03T05:10:44;6.97;;;1.80;;
16669;SDS011;8448;52.034;5.158;2023-02-03T05:13:11;10.60;;;2.60;;
16669;SDS011;8448;52.034;5.158;2023-02-03T05:15:38;8.83;;;2.00;;
16669;SDS011;8448;52.034;5.158;2023-02-03T05:18:06;11.17;;;2.00;;
16669;SDS011;8448;52.034;5.158;2023-02-03T05:20:33;10.73;;;2.03;;
16669;SDS011;8448;52.034;5.158;2023-02-03T05:23:01;11.03;;;1.80;;
16669;SDS011;8448;52.034;5.158;2023-02-03T05:25:29;4.97;;;1.60;;
16669;SDS011;8448;52.034;5.158;2023-02-03T05:27:58;9.07;;;1.80;;
16669;SDS011;8448;52.034;5.158;2023-02-03T05:30:25;8.73;;;1.80;;
16669;SDS011;8448;52.034;5.158;2023-02-03T05:32:52;9.00;;;2.17;;
16669;SDS011;8448;52.034;5.158;2023-02-03T05:35:20;8.60;;;1.83;;
16669;SDS011;8448;52.034;5.158;2023-02-03T05:37:47;10.03;;;1.93;;
16669;SDS011;8448;52.034;5.158;2023-02-03T05:40:14;8.33;;;1.80;;
16669;SDS011;8448;52.034;5.158;2023-02-03T05:43:01;10.73;;;1.80;;
16669;SDS011;8448;52.034;5.158;2023-02-03T05:45:28;11.40;;;2.20;;
16669;SDS011;8448;52.034;5.158;2023-02-03T05:47:56;8.80;;;2.00;;
16669;SDS011;8448;52.034;5.158;2023-02-03T05:50:26;8.10;;;1.90;;
16669;SDS011;8448;52.034;5.158;2023-02-03T05:53:05;8.07;;;1.83;;
16669;SDS011;8448;52.034;5.158;2023-02-03T05:55:33;8.30;;;2.20;;
16669;SDS011;8448;52.034;5.158;2023-02-03T05:58:03;7.57;;;1.97;;
16669;SDS011;8448;52.034;5.158;2023-02-03T06:00:31;7.50;;;1.70;;
16669;SDS011;8448;52.034;5.158;2023-02-03T06:02:59;11.37;;;2.17;;
16669;SDS011;8448;52.034;5.158;2023-02-03T06:05:28;9.93;;;2.10;;
16669;SDS011;8448;52.034;5.158;2023-02-03T06:07:57;10.27;;;2.13;;
16669;SDS011;8448;52.034;5.158;2023-02-03T06:10:24;13.57;;;2.70;;
16669;SDS011;8448;52.034;5.158;2023-02-03T06:12:52;9.67;;;2.10;;
16669;SDS011;8448;52.034;5.158;2023-02-03T06:15:21;7.93;;;2.07;;
16669;SDS011;8448;52.034;5.158;2023-02-03T06:17:48;10.23;;;2.20;;
16669;SDS011;8448;52.034;5.158;2023-02-03T06:20:17;9.67;;;2.13;;
16669;SDS011;8448;52.034;5.158;2023-02-03T06:22:45;8.90;;;2.23;;
16669;SDS011;8448;52.034;5.158;2023-02-03T06:25:12;10.00;;;2.20;;
16669;SDS011;8448;52.034;5.158;2023-02-03T06:27:39;8.47;;;2.00;;
16669;SDS011;8448;52.034;5.158;2023-02-03T06:30:07;9.23;;;2.50;;
16669;SDS011;8448;52.034;5.158;2023-02-03T06:32:37;11.63;;;1.97;;
16669;SDS011;8448;52.034;5.158;2023-02-03T06:35:05;10.50;;;2.30;;
16669;SDS011;8448;52.034;5.158;2023-02-03T06:37:33;8.13;;;2.50;;
16669;SDS011;8448;52.034;5.158;2023-02-03T06:40:01;11.90;;;2.83;;
16669;SDS011;8448;52.034;5.158;2023-02-03T06:42:30;10.70;;;2.37;;
16669;SDS011;8448;52.034;5.158;2023-02-03T06:44:57;10.33;;;2.13;;
16669;SDS011;8448;52.034;5.158;2023-02-03T06:47:25;8.00;;;1.77;;
16669;SDS011;8448;52.034;5.158;2023-02-03T06:49:53;8.53;;;2.17;;
16669;SDS011;8448;52.034;5.158;2023-02-03T06:52:21;11.23;;;2.20;;
16669;SDS011;8448;52.034;5.158;2023-02-03T06:54:48;8.43;;;2.20;;
16669;SDS011;8448;52.034;5.158;2023-02-03T06:57:15;10.43;;;2.30;;
16669;SDS011;8448;52.034;5.158;2023-02-03T06:59:43;9.63;;;2.27;;
16669;SDS011;8448;52.034;5.158;2023-02-03T07:02:10;7.93;;;1.87;;
16669;SDS011;8448;52.034;5.158;2023-02-03T07:04:38;7.93;;;2.20;;
16669;SDS011;8448;52.034;5.158;2023-02-03T07:07:06;11.10;;;2.17;;
16669;SDS011;8448;52.034;5.158;2023-02-03T07:09:34;9.50;;;2.37;;
16669;SDS011;8448;52.034;5.158;2023-02-03T07:12:01;9.87;;;2.23;;
16669;SDS011;8448;52.034;5.158;2023-02-03T07:14:29;9.90;;;2.30;;
16669;SDS011;8448;52.034;5.158;2023-02-03T07:16:56;9.83;;;2.60;;
16669;SDS011;8448;52.034;5.158;2023-02-03T07:19:23;9.13;;;2.00;;
16669;SDS011;8448;52.034;5.158;2023-02-03T07:21:51;9.67;;;2.77;;
16669;SDS011;8448;52.034;5.158;2023-02-03T07:24:19;7.23;;;1.87;;
16669;SDS011;8448;52.034;5.158;2023-02-03T07:26:47;14.50;;;2.90;;
16669;SDS011;8448;52.034;5.158;2023-02-03T07:29:14;10.73;;;2.63;;
16669;SDS011;8448;52.034;5.158;2023-02-03T07:31:42;9.20;;;2.40;;
16669;SDS011;8448;52.034;5.158;2023-02-03T07:34:09;10.70;;;2.40;;
16669;SDS011;8448;52.034;5.158;2023-02-03T07:36:37;12.03;;;2.70;;
16669;SDS011;8448;52.034;5.158;2023-02-03T07:39:05;6.60;;;2.30;;
16669;SDS011;8448;52.034;5.158;2023-02-03T07:41:34;11.93;;;2.60;;
16669;SDS011;8448;52.034;5.158;2023-02-03T07:44:01;10.30;;;2.13;;
16669;SDS011;8448;52.034;5.158;2023-02-03T07:46:29;9.50;;;2.37;;
16669;SDS011;8448;52.034;5.158;2023-02-03T07:48:56;12.00;;;2.40;;
16669;SDS011;8448;52.034;5.158;2023-02-03T07:51:24;10.77;;;2.60;;
16669;SDS011;8448;52.034;5.158;2023-02-03T07:53:51;10.13;;;2.40;;
16669;SDS011;8448;52.034;5.158;2023-02-03T07:56:19;9.00;;;2.50;;
16669;SDS011;8448;52.034;5.158;2023-02-03T07:58:47;7.43;;;2.23;;
16669;SDS011;8448;52.034;5.158;2023-02-03T08:01:18;8.77;;;2.40;;
16669;SDS011;8448;52.034;5.158;2023-02-03T08:03:45;11.03;;;2.40;;
16669;SDS011;8448;52.034;5.158;2023-02-03T08:06:13;10.23;;;2.33;;
16669;SDS011;8448;52.034;5.158;2023-02-03T08:08:40;10.43;;;2.80;;
16669;SDS011;8448;52.034;5.158;2023-02-03T08:11:08;14.73;;;3.27;;
16669;SDS011;8448;52.034;5.158;2023-02-03T08:13:35;12.30;;;2.90;;
16669;SDS011;8448;52.034;5.158;2023-02-03T08:16:05;12.07;;;2.77;;
16669;SDS011;8448;52.034;5.158;2023-02-03T08:18:32;7.13;;;2.37;;
16669;SDS011;8448;52.034;5.158;2023-02-03T08:21:00;11.93;;;2.30;;
16669;SDS011;8448;52.034;5.158;2023-02-03T08:23:29;10.77;;;2.47;;
16669;SDS011;8448;52.034;5.158;2023-02-03T08:25:56;12.90;;;2.40;;
16669;SDS011;8448;52.034;5.158;2023-02-03T08:28:23;7.07;;;2.00;;
16669;SDS011;8448;52.034;5.158;2023-02-03T08:30:51;11.20;;;2.30;;
16669;SDS011;8448;52.034;5.158;2023-02-03T08:33:20;11.40;;;2.27;;
16669;SDS011;8448;52.034;5.158;2023-02-03T08:35:48;7.60;;;2.33;;
16669;SDS011;8448;52.034;5.158;2023-02-03T08:38:16;12.20;;;2.57;;
16669;SDS011;8448;52.034;5.158;2023-02-03T08:40:43;12.90;;;2.20;;
16669;SDS011;8448;52.034;5.158;2023-02-03T08:43:11;9.83;;;2.50;;
16669;SDS011;8448;52.034;5.158;2023-02-03T08:45:38;14.40;;;2.70;;
16669;SDS011;8448;52.034;5.158;2023-02-03T08:48:06;10.27;;;2.40;;
16669;SDS011;8448;52.034;5.158;2023-02-03T08:50:34;9.33;;;2.30;;
16669;SDS011;8448;52.034;5.158;2023-02-03T08:53:02;7.60;;;2.33;;
16669;SDS011;8448;52.034;5.158;2023-02-03T08:55:29;11.80;;;2.47;;
16669;SDS011;8448;52.034;5.158;2023-02-03T08:57:57;7.37;;;2.17;;
16669;SDS011;8448;52.034;5.158;2023-02-03T09:00:24;11.73;;;2.70;;
16669;SDS011;8448;52.034;5.158;2023-02-03T09:02:52;10.07;;;2.30;;
16669;SDS011;8448;52.034;5.158;2023-02-03T09:05:19;10.17;;;2.53;;
16669;SDS011;8448;52.034;5.158;2023-02-03T09:07:48;9.93;;;2.40;;
16669;SDS011;8448;52.034;5.158;2023-02-03T09:10:15;11.93;;;2.60;;
16669;SDS011;8448;52.034;5.158;2023-02-03T09:12:43;8.77;;;2.40;;
16669;SDS011;8448;52.034;5.158;2023-02-03T09:15:10;11.10;;;2.27;;
16669;SDS011;8448;52.034;5.158;2023-02-03T09:17:37;6.37;;;2.40;;
16669;SDS011;8448;52.034;5.158;2023-02-03T09:20:05;9.13;;;2.37;;
16669;SDS011;8448;52.034;5.158;2023-02-03T09:22:35;12.37;;;2.67;;
16669;SDS011;8448;52.034;5.158;2023-02-03T09:25:04;7.67;;;2.23;;
16669;SDS011;8448;52.034;5.158;2023-02-03T09:27:32;10.83;;;2.57;;
16669;SDS011;8448;52.034;5.158;2023-02-03T09:29:59;12.97;;;2.60;;
16669;SDS011;8448;52.034;5.158;2023-02-03T09:32:26;12.00;;;2.83;;
16669;SDS011;8448;52.034;5.158;2023-02-03T09:34:54;6.73;;;2.30;;
16669;SDS011;8448;52.034;5.158;2023-02-03T09:37:21;9.83;;;2.13;;
16669;SDS011;8448;52.034;5.158;2023-02-03T09:39:49;18.33;;;2.60;;
16669;SDS011;8448;52.034;5.158;2023-02-03T09:42:21;10.40;;;2.33;;
16669;SDS011;8448;52.034;5.158;2023-02-03T09:44:55;13.27;;;2.50;;
16669;SDS011;8448;52.034;5.158;2023-02-03T09:47:31;10.73;;;2.57;;
16669;SDS011;8448;52.034;5.158;2023-02-03T09:50:01;8.07;;;2.03;;
16669;SDS011;8448;52.034;5.158;2023-02-03T09:52:31;9.87;;;2.40;;
16669;SDS011;8448;52.034;5.158;2023-02-03T09:55:00;8.27;;;2.40;;
16669;SDS011;8448;52.034;5.158;2023-02-03T09:57:34;12.43;;;2.63;;
16669;SDS011;8448;52.034;5.158;2023-02-03T10:00:13;7.87;;;2.10;;
16669;SDS011;8448;52.034;5.158;2023-02-03T10:02:48;9.40;;;1.87;;
16669;SDS011;8448;52.034;5.158;2023-02-03T10:05:21;8.67;;;2.23;;
16669;SDS011;8448;52.034;5.158;2023-02-03T10:07:55;9.30;;;2.23;;
16669;SDS011;8448;52.034;5.158;2023-02-03T10:10:30;9.07;;;2.27;;
16669;SDS011;8448;52.034;5.158;2023-02-03T10:15:51;14.00;;;2.73;;
16669;SDS011;8448;52.034;5.158;2023-02-03T10:18:25;9.30;;;2.10;;
16669;SDS011;8448;52.034;5.158;2023-02-03T10:20:55;7.60;;;2.10;;
16669;SDS011;8448;52.034;5.158;2023-02-03T10:23:26;13.10;;;2.20;;
16669;SDS011;8448;52.034;5.158;2023-02-03T10:25:55;11.93;;;2.50;;
16669;SDS011;8448;52.034;5.158;2023-02-03T10:28:25;11.27;;;2.20;;
16669;SDS011;8448;52.034;5.158;2023-02-03T10:30:56;8.87;;;2.00;;
16669;SDS011;8448;52.034;5.158;2023-02-03T10:33:24;9.27;;;2.50;;
16669;SDS011;8448;52.034;5.158;2023-02-03T10:35:53;10.77;;;2.10;;
16669;SDS011;8448;52.034;5.158;2023-02-03T10:38:26;9.87;;;2.10;;
16669;SDS011;8448;52.034;5.158;2023-02-03T10:41:05;6.80;;;2.23;;
16669;SDS011;8448;52.034;5.158;2023-02-03T10:43:33;7.10;;;2.03;;
16669;SDS011;8448;52.034;5.158;2023-02-03T10:46:16;7.50;;;2.40;;
16669;SDS011;8448;52.034;5.158;2023-02-03T10:48:44;6.33;;;2.17;;
16669;SDS011;8448;52.034;5.158;2023-02-03T10:51:15;8.17;;;2.30;;
16669;SDS011;8448;52.034;5.158;2023-02-03T10:53:45;6.50;;;2.10;;
16669;SDS011;8448;52.034;5.158;2023-02-03T10:56:13;8.33;;;1.97;;
16669;SDS011;8448;52.034;5.158;2023-02-03T10:58:47;6.03;;;2.00;;
16669;SDS011;8448;52.034;5.158;2023-02-03T11:01:17;11.93;;;2.67;;
16669;SDS011;8448;52.034;5.158;2023-02-03T11:03:53;6.90;;;2.57;;
16669;SDS011;8448;52.034;5.158;2023-02-03T11:06:22;7.27;;;2.30;;
16669;SDS011;8448;52.034;5.158;2023-02-03T11:08:50;6.70;;;2.13;;
16669;SDS011;8448;52.034;5.158;2023-02-03T11:11:22;9.43;;;2.60;;
16669;SDS011;8448;52.034;5.158;2023-02-03T11:13:55;6.07;;;1.97;;
16669;SDS011;8448;52.034;5.158;2023-02-03T11:16:37;7.00;;;2.33;;
16669;SDS011;8448;52.034;5.158;2023-02-03T11:19:05;7.27;;;2.20;;
16669;SDS011;8448;52.034;5.158;2023-02-03T11:21:39;5.57;;;2.43;;
16669;SDS011;8448;52.034;5.158;2023-02-03T11:24:11;8.70;;;2.30;;
16669;SDS011;8448;52.034;5.158;2023-02-03T11:26:45;7.30;;;2.30;;
16669;SDS011;8448;52.034;5.158;2023-02-03T11:29:17;9.73;;;2.43;;
16669;SDS011;8448;52.034;5.158;2023-02-03T11:31:47;5.13;;;2.20;;
16669;SDS011;8448;52.034;5.158;2023-02-03T11:34:16;8.37;;;2.67;;
16669;SDS011;8448;52.034;5.158;2023-02-03T11:36:48;7.63;;;3.00;;
16669;SDS011;8448;52.034;5.158;2023-02-03T11:39:17;6.60;;;2.37;;
16669;SDS011;8448;52.034;5.158;2023-02-03T11:41:47;6.50;;;2.33;;
16669;SDS011;8448;52.034;5.158;2023-02-03T11:44:17;6.83;;;2.67;;
16669;SDS011;8448;52.034;5.158;2023-02-03T11:46:46;9.23;;;2.80;;
16669;SDS011;8448;52.034;5.158;2023-02-03T11:49:19;7.53;;;2.47;;
16669;SDS011;8448;52.034;5.158;2023-02-03T11:52:31;4.47;;;2.20;;
16669;SDS011;8448;52.034;5.158;2023-02-03T11:55:35;9.80;;;2.50;;
16669;SDS011;8448;52.034;5.158;2023-02-03T11:58:19;8.00;;;3.10;;
16669;SDS011;8448;52.034;5.158;2023-02-03T12:01:06;5.53;;;2.53;;
16669;SDS011;8448;52.034;5.158;2023-02-03T12:03:45;6.83;;;2.53;;
16669;SDS011;8448;52.034;5.158;2023-02-03T12:06:39;10.00;;;2.37;;
16669;SDS011;8448;52.034;5.158;2023-02-03T12:09:21;10.17;;;2.27;;
16669;SDS011;8448;52.034;5.158;2023-02-03T12:12:03;8.20;;;2.40;;
16669;SDS011;8448;52.034;5.158;2023-02-03T12:14:54;8.43;;;2.57;;
16669;SDS011;8448;52.034;5.158;2023-02-03T12:17:38;6.37;;;2.53;;
16669;SDS011;8448;52.034;5.158;2023-02-03T12:20:17;8.13;;;2.43;;
16669;SDS011;8448;52.034;5.158;2023-02-03T12:22:56;9.30;;;2.47;;
16669;SDS011;8448;52.034;5.158;2023-02-03T12:25:32;10.27;;;2.30;;
16669;SDS011;8448;52.034;5.158;2023-02-03T12:28:09;7.83;;;2.73;;
16669;SDS011;8448;52.034;5.158;2023-02-03T12:30:46;7.47;;;2.43;;
16669;SDS011;8448;52.034;5.158;2023-02-03T12:33:19;5.50;;;2.33;;
16669;SDS011;8448;52.034;5.158;2023-02-03T12:35:50;5.83;;;2.23;;
16669;SDS011;8448;52.034;5.158;2023-02-03T12:38:24;7.17;;;2.30;;
16669;SDS011;8448;52.034;5.158;2023-02-03T12:40:56;10.60;;;2.37;;
16669;SDS011;8448;52.034;5.158;2023-02-03T12:43:28;9.33;;;2.33;;
16669;SDS011;8448;52.034;5.158;2023-02-03T12:46:03;12.67;;;2.43;;
16669;SDS011;8448;52.034;5.158;2023-02-03T12:48:37;6.13;;;1.90;;
16669;SDS011;8448;52.034;5.158;2023-02-03T12:51:09;6.80;;;2.10;;
16669;SDS011;8448;52.034;5.158;2023-02-03T12:53:40;9.37;;;2.33;;
16669;SDS011;8448;52.034;5.158;2023-02-03T12:56:11;8.47;;;2.50;;
16669;SDS011;8448;52.034;5.158;2023-02-03T12:58:41;9.60;;;3.20;;
16669;SDS011;8448;52.034;5.158;2023-02-03T13:01:13;8.10;;;3.00;;
16669;SDS011;8448;52.034;5.158;2023-02-03T13:03:48;9.17;;;3.40;;
16669;SDS011;8448;52.034;5.158;2023-02-03T13:06:20;7.20;;;2.60;;
16669;SDS011;8448;52.034;5.158;2023-02-03T13:08:51;9.63;;;3.13;;
16669;SDS011;8448;52.034;5.158;2023-02-03T13:11:22;8.50;;;3.93;;
16669;SDS011;8448;52.034;5.158;2023-02-03T13:13:54;9.53;;;3.47;;
16669;SDS011;8448;52.034;5.158;2023-02-03T13:16:25;11.20;;;3.17;;
16669;SDS011;8448;52.034;5.158;2023-02-03T13:18:57;12.57;;;3.83;;
16669;SDS011;8448;52.034;5.158;2023-02-03T13:21:27;12.43;;;3.30;;
16669;SDS011;8448;52.034;5.158;2023-02-03T13:23:54;9.23;;;3.37;;
16669;SDS011;8448;52.034;5.158;2023-02-03T13:26:36;9.60;;;3.80;;
16669;SDS011;8448;52.034;5.158;2023-02-03T13:29:39;9.40;;;3.47;;
16669;SDS011;8448;52.034;5.158;2023-02-03T13:32:19;13.00;;;4.53;;
16669;SDS011;8448;52.034;5.158;2023-02-03T13:35:15;21.27;;;6.93;;
16669;SDS011;8448;52.034;5.158;2023-02-03T13:38:10;10.30;;;3.50;;
16669;SDS011;8448;52.034;5.158;2023-02-03T13:40:49;10.50;;;4.43;;
16669;SDS011;8448;52.034;5.158;2023-02-03T13:43:23;14.53;;;5.10;;
16669;SDS011;8448;52.034;5.158;2023-02-03T13:45:53;18.40;;;5.63;;
16669;SDS011;8448;52.034;5.158;2023-02-03T13:48:21;22.70;;;8.17;;
16669;SDS011;8448;52.034;5.158;2023-02-03T13:51:00;27.50;;;9.63;;
16669;SDS011;8448;52.034;5.158;2023-02-03T13:53:32;32.20;;;11.27;;
16669;SDS011;8448;52.034;5.158;2023-02-03T13:56:02;33.13;;;9.60;;
16669;SDS011;8448;52.034;5.158;2023-02-03T13:58:31;37.10;;;11.33;;
16669;SDS011;8448;52.034;5.158;2023-02-03T14:01:01;17.77;;;6.50;;
16669;SDS011;8448;52.034;5.158;2023-02-03T14:03:40;17.30;;;6.83;;
16669;SDS011;8448;52.034;5.158;2023-02-03T14:09:35;20.73;;;6.93;;
16669;SDS011;8448;52.034;5.158;2023-02-03T14:12:20;19.23;;;5.97;;
16669;SDS011;8448;52.034;5.158;2023-02-03T14:15:01;18.70;;;5.87;;
16669;SDS011;8448;52.034;5.158;2023-02-03T14:17:52;16.20;;;5.50;;
16669;SDS011;8448;52.034;5.158;2023-02-03T14:20:42;14.43;;;4.40;;
16669;SDS011;8448;52.034;5.158;2023-02-03T14:23:19;15.53;;;3.30;;
16669;SDS011;8448;52.034;5.158;2023-02-03T14:25:53;12.03;;;3.83;;
16669;SDS011;8448;52.034;5.158;2023-02-03T14:28:23;13.37;;;3.50;;
16669;SDS011;8448;52.034;5.158;2023-02-03T14:33:52;13.10;;;3.50;;
16669;SDS011;8448;52.034;5.158;2023-02-03T14:36:27;18.53;;;3.77;;
16669;SDS011;8448;52.034;5.158;2023-02-03T14:39:20;13.17;;;3.43;;
16669;SDS011;8448;52.034;5.158;2023-02-03T14:42:13;15.57;;;3.83;;
16669;SDS011;8448;52.034;5.158;2023-02-03T14:44:48;12.93;;;3.53;;
16669;SDS011;8448;52.034;5.158;2023-02-03T14:47:24;13.97;;;3.23;;
16669;SDS011;8448;52.034;5.158;2023-02-03T14:50:04;13.90;;;3.40;;
16669;SDS011;8448;52.034;5.158;2023-02-03T14:52:53;20.50;;;4.00;;
16669;SDS011;8448;52.034;5.158;2023-02-03T14:55:32;11.90;;;3.23;;
16669;SDS011;8448;52.034;5.158;2023-02-03T14:58:06;11.70;;;2.93;;
16669;SDS011;8448;52.034;5.158;2023-02-03T15:00:45;14.77;;;3.50;;
16669;SDS011;8448;52.034;5.158;2023-02-03T15:03:26;16.30;;;3.57;;
16669;SDS011;8448;52.034;5.158;2023-02-03T15:05:56;16.60;;;3.40;;
16669;SDS011;8448;52.034;5.158;2023-02-03T15:08:29;16.53;;;3.77;;
16669;SDS011;8448;52.034;5.158;2023-02-03T15:10:59;12.73;;;3.33;;
16669;SDS011;8448;52.034;5.158;2023-02-03T15:13:32;17.67;;;4.93;;
16669;SDS011;8448;52.034;5.158;2023-02-03T15:16:00;15.50;;;3.27;;
16669;SDS011;8448;52.034;5.158;2023-02-03T15:18:29;18.80;;;3.03;;
16669;SDS011;8448;52.034;5.158;2023-02-03T15:21:00;26.83;;;7.30;;
16669;SDS011;8448;52.034;5.158;2023-02-03T15:23:28;25.23;;;6.17;;
16669;SDS011;8448;52.034;5.158;2023-02-03T15:25:57;23.90;;;7.50;;
16669;SDS011;8448;52.034;5.158;2023-02-03T15:28:26;19.50;;;5.80;;
16669;SDS011;8448;52.034;5.158;2023-02-03T15:30:57;16.27;;;4.90;;
16669;SDS011;8448;52.034;5.158;2023-02-03T15:33:27;19.97;;;5.10;;
16669;SDS011;8448;52.034;5.158;2023-02-03T15:35:57;14.80;;;4.87;;